createdAt,value
2022-07-31T00:00:31.186Z,35.60
2022-07-31T00:03:06.845Z,31.63
2022-07-31T00:05:41.892Z,30.33
2022-07-31T00:08:16.422Z,33.13
2022-07-31T00:10:50.191Z,30.27
2022-07-31T00:13:56.435Z,30.83
2022-07-31T00:16:21.867Z,32.42
2022-07-31T00:18:57.506Z,33.15
2022-07-31T00:21:32.701Z,32.80
2022-07-31T00:24:06.888Z,31.85
2022-07-31T00:26:41.984Z,35.67
2022-07-31T00:29:16.607Z,35.78
2022-07-31T00:31:50.655Z,32.15
2022-07-31T00:34:26.926Z,30.75
2022-07-31T00:39:49.250Z,35.70
2022-07-31T00:42:23.400Z,38.50
2022-07-31T00:44:57.175Z,38.58
2022-07-31T00:47:33.427Z,37.75
2022-07-31T00:50:10.679Z,34.05
2022-07-31T00:52:48.075Z,39.60
2022-07-31T00:55:28.558Z,37.58
2022-07-31T00:58:16.896Z,36.35
2022-07-31T01:00:51.765Z,39.30
2022-07-31T01:03:25.592Z,37.97
2022-07-31T01:06:01.348Z,34.70
2022-07-31T01:08:35.117Z,38.95
2022-07-31T01:11:12.022Z,41.88
2022-07-31T01:13:53.458Z,37.38
2022-07-31T01:16:28.415Z,38.13
2022-07-31T01:19:03.932Z,42.63
2022-07-31T01:21:47.063Z,34.30
2022-07-31T01:24:44.291Z,49.47
2022-07-31T01:27:49.318Z,39.85
2022-07-31T01:30:33.112Z,34.05
2022-07-31T01:33:13.998Z,48.50
2022-07-31T01:35:52.006Z,41.72
2022-07-31T01:38:28.914Z,45.83
2022-07-31T01:41:06.598Z,41.70
2022-07-31T01:43:42.936Z,41.22
2022-07-31T01:46:21.131Z,41.05
2022-07-31T01:48:59.104Z,40.50
2022-07-31T01:51:34.271Z,38.30
2022-07-31T01:54:09.186Z,41.22
2022-07-31T01:56:44.892Z,37.58
2022-07-31T01:59:22.966Z,42.83
2022-07-31T02:02:40.377Z,37.33
2022-07-31T02:05:17.427Z,39.92
2022-07-31T02:07:54.143Z,41.42
2022-07-31T02:10:32.927Z,47.75
2022-07-31T02:13:06.592Z,39.10
2022-07-31T02:15:41.297Z,36.85
2022-07-31T02:18:18.733Z,46.17
2022-07-31T02:21:30.035Z,43.10
2022-07-31T02:24:05.031Z,35.67
2022-07-31T02:26:42.062Z,30.70
2022-07-31T02:29:19.671Z,35.03
2022-07-31T02:32:01.811Z,39.80
2022-07-31T02:34:41.540Z,37.25
2022-07-31T02:37:19.014Z,40.60
2022-07-31T02:39:54.651Z,37.55
2022-07-31T02:42:28.791Z,44.13
2022-07-31T02:45:03.183Z,48.13
2022-07-31T02:47:37.832Z,53.28
2022-07-31T02:50:20.693Z,49.53
2022-07-31T02:52:56.918Z,43.38
2022-07-31T02:55:30.979Z,47.13
2022-07-31T02:58:06.422Z,48.47
2022-07-31T03:00:40.188Z,50.13
2022-07-31T03:03:13.691Z,47.10
2022-07-31T03:05:50.146Z,46.10
2022-07-31T03:08:24.549Z,46.85
2022-07-31T03:11:00.110Z,46.42
2022-07-31T03:13:36.486Z,45.53
2022-07-31T03:16:13.327Z,47.97
2022-07-31T03:18:47.698Z,53.25
2022-07-31T03:21:24.267Z,48.45
2022-07-31T03:23:58.297Z,46.50
2022-07-31T03:26:32.753Z,48.80
2022-07-31T03:29:39.076Z,51.65
2022-07-31T03:32:00.736Z,48.35
2022-07-31T03:34:34.995Z,47.17
2022-07-31T03:37:11.459Z,47.75
2022-07-31T03:39:46.803Z,49.15
2022-07-31T03:42:20.029Z,51.00
2022-07-31T03:44:54.099Z,42.30
2022-07-31T03:47:28.490Z,42.55
2022-07-31T03:50:03.073Z,44.70
2022-07-31T03:52:39.894Z,45.58
2022-07-31T03:55:14.546Z,44.22
2022-07-31T03:57:50.400Z,42.65
2022-07-31T04:00:28.747Z,50.78
2022-07-31T04:03:08.391Z,44.00
2022-07-31T04:06:04.915Z,40.78
2022-07-31T04:08:41.679Z,39.38
2022-07-31T04:11:15.879Z,41.05
2022-07-31T04:13:49.622Z,44.47
2022-07-31T04:16:26.792Z,42.97
2022-07-31T04:19:01.237Z,49.58
2022-07-31T04:21:35.127Z,43.65
2022-07-31T04:24:13.034Z,48.17
2022-07-31T04:27:00.957Z,52.10
2022-07-31T04:29:50.738Z,54.92
2022-07-31T04:32:27.810Z,49.65
2022-07-31T04:35:07.426Z,48.10
2022-07-31T04:37:48.084Z,51.70
2022-07-31T04:40:24.251Z,49.50
2022-07-31T04:43:18.408Z,49.05
2022-07-31T04:45:52.696Z,50.22
2022-07-31T04:48:27.077Z,42.97
2022-07-31T04:51:00.138Z,46.97
2022-07-31T04:53:35.477Z,43.90
2022-07-31T04:56:30.191Z,41.58
2022-07-31T04:59:13.309Z,38.45
2022-07-31T05:01:49.805Z,34.65
2022-07-31T05:04:28.093Z,35.97
2022-07-31T05:07:03.795Z,31.67
2022-07-31T05:09:38.388Z,28.67
2022-07-31T05:12:15.687Z,32.50
2022-07-31T05:14:49.224Z,33.10
2022-07-31T05:17:22.851Z,32.33
2022-07-31T05:20:17.363Z,30.08
2022-07-31T05:23:13.577Z,33.80
2022-07-31T05:26:06.557Z,34.63
2022-07-31T05:28:43.758Z,32.53
2022-07-31T05:34:09.647Z,34.15
2022-07-31T05:36:42.953Z,31.88
2022-07-31T05:39:19.178Z,29.83
2022-07-31T05:42:10.682Z,34.70
2022-07-31T05:45:28.057Z,33.03
2022-07-31T05:48:11.843Z,30.92
2022-07-31T05:50:56.295Z,30.77
2022-07-31T05:53:38.149Z,32.53
2022-07-31T05:56:31.233Z,33.75
2022-07-31T05:59:06.630Z,33.20
2022-07-31T06:01:42.262Z,35.65
2022-07-31T06:04:15.970Z,33.10
2022-07-31T06:06:52.341Z,35.75
2022-07-31T06:09:25.910Z,43.72
2022-07-31T06:12:00.241Z,35.03
2022-07-31T06:14:34.709Z,30.23
2022-07-31T06:17:20.586Z,34.20
2022-07-31T06:19:56.748Z,32.92
2022-07-31T06:22:30.901Z,35.75
2022-07-31T06:25:04.554Z,33.47
2022-07-31T06:27:39.339Z,35.15
2022-07-31T06:30:16.526Z,35.15
2022-07-31T06:32:52.358Z,31.95
2022-07-31T06:35:26.095Z,31.42
2022-07-31T06:38:54.277Z,35.25
2022-07-31T06:41:48.644Z,37.20
2022-07-31T06:44:35.240Z,32.20
2022-07-31T06:47:46.487Z,30.67
2022-07-31T06:50:35.588Z,32.45
2022-07-31T06:53:28.451Z,35.97
2022-07-31T06:56:02.411Z,34.15
2022-07-31T06:58:36.025Z,30.52
2022-07-31T07:01:09.283Z,32.80
2022-07-31T07:03:43.401Z,35.13
2022-07-31T07:06:25.399Z,31.63
2022-07-31T07:08:59.432Z,28.00
2022-07-31T07:11:33.608Z,37.08
2022-07-31T07:14:07.747Z,34.92
2022-07-31T07:16:42.300Z,35.05
2022-07-31T07:19:16.939Z,32.45
2022-07-31T07:21:52.861Z,32.40
2022-07-31T07:24:26.766Z,29.60
2022-07-31T07:27:10.713Z,29.05
2022-07-31T07:29:44.998Z,32.17
2022-07-31T07:32:19.403Z,31.75
2022-07-31T07:35:00.225Z,28.92
2022-07-31T07:38:05.253Z,35.63
2022-07-31T07:40:40.024Z,30.90
2022-07-31T07:43:14.449Z,32.60
2022-07-31T07:45:48.291Z,29.02
2022-07-31T07:48:22.342Z,31.55
2022-07-31T07:51:19.776Z,33.10
2022-07-31T07:54:00.075Z,31.55
2022-07-31T07:56:54.199Z,34.80
2022-07-31T07:59:55.118Z,32.78
2022-07-31T08:03:46.415Z,37.00
2022-07-31T08:05:52.501Z,28.83
2022-07-31T08:08:28.824Z,30.40
2022-07-31T08:11:25.017Z,30.50
2022-07-31T08:14:22.870Z,36.40
2022-07-31T08:17:19.963Z,33.35
2022-07-31T08:19:53.492Z,31.27
2022-07-31T08:22:29.184Z,32.15
2022-07-31T08:25:05.338Z,31.08
2022-07-31T08:27:41.883Z,34.13
2022-07-31T08:30:17.016Z,30.95
2022-07-31T08:32:51.253Z,35.55
2022-07-31T08:35:37.876Z,40.08
2022-07-31T08:38:12.609Z,39.28
2022-07-31T08:40:55.069Z,38.22
2022-07-31T08:43:59.896Z,40.47
2022-07-31T08:46:26.224Z,47.80
2022-07-31T08:49:01.688Z,50.78
2022-07-31T08:51:50.799Z,44.78
2022-07-31T08:54:54.610Z,40.67
2022-07-31T08:57:30.680Z,40.03
2022-07-31T09:00:08.472Z,39.33
2022-07-31T09:02:43.689Z,46.40
2022-07-31T09:05:42.325Z,44.73
2022-07-31T09:08:19.094Z,38.10
2022-07-31T09:11:08.359Z,32.47
2022-07-31T09:14:01.991Z,30.80
2022-07-31T09:16:56.931Z,27.97
2022-07-31T09:19:51.641Z,34.37
2022-07-31T09:22:32.851Z,35.13
2022-07-31T09:25:20.585Z,33.37
2022-07-31T09:28:04.740Z,34.53
2022-07-31T09:30:55.466Z,37.40
2022-07-31T09:33:52.430Z,42.40
2022-07-31T09:36:32.326Z,40.30
2022-07-31T09:39:26.736Z,38.17
2022-07-31T09:42:20.263Z,38.17
2022-07-31T09:45:25.525Z,34.83
2022-07-31T09:48:18.351Z,39.30
2022-07-31T09:51:04.815Z,39.90
2022-07-31T09:53:54.488Z,40.03
2022-07-31T09:57:01.277Z,33.00
2022-07-31T09:59:39.429Z,32.03
2022-07-31T10:02:17.220Z,28.27
2022-07-31T10:04:54.745Z,28.92
2022-07-31T10:07:34.832Z,32.55
2022-07-31T10:10:18.349Z,30.77
2022-07-31T10:13:14.780Z,31.52
2022-07-31T10:15:51.191Z,36.30
2022-07-31T10:18:44.500Z,39.83
2022-07-31T10:21:33.346Z,34.60
2022-07-31T10:24:16.836Z,37.75
2022-07-31T10:27:00.366Z,43.33
2022-07-31T10:29:36.529Z,39.97
2022-07-31T10:32:11.857Z,33.53
2022-07-31T10:35:18.964Z,36.45
2022-07-31T10:38:35.384Z,32.45
2022-07-31T10:41:51.347Z,35.78
2022-07-31T10:44:38.688Z,32.50
2022-07-31T10:47:35.210Z,33.30
2022-07-31T10:50:29.244Z,34.25
2022-07-31T10:53:17.481Z,40.53
2022-07-31T10:56:12.430Z,41.53
2022-07-31T10:59:07.575Z,44.88
2022-07-31T11:02:13.883Z,35.75
2022-07-31T11:04:53.301Z,38.13
2022-07-31T11:08:03.646Z,39.73
2022-07-31T11:10:58.389Z,37.80
2022-07-31T11:13:56.683Z,40.30
2022-07-31T11:16:59.460Z,44.72
2022-07-31T11:19:53.898Z,40.75
2022-07-31T11:22:30.446Z,39.67
2022-07-31T11:25:06.255Z,43.53
2022-07-31T11:27:40.810Z,37.80
2022-07-31T11:33:03.371Z,42.63
2022-07-31T11:35:38.283Z,39.53
2022-07-31T11:38:12.289Z,44.13
2022-07-31T11:40:53.213Z,44.80
2022-07-31T11:43:27.487Z,44.47
2022-07-31T11:46:00.776Z,37.37
2022-07-31T11:48:40.966Z,38.47
2022-07-31T11:51:21.736Z,38.90
2022-07-31T11:53:57.049Z,38.10
2022-07-31T11:56:32.265Z,36.77
2022-07-31T11:59:06.713Z,36.67
2022-07-31T12:01:41.004Z,36.67
2022-07-31T12:04:22.017Z,37.17
2022-07-31T12:07:02.415Z,37.20
2022-07-31T12:10:02.007Z,42.17
2022-07-31T12:12:31.370Z,42.07
2022-07-31T12:15:05.013Z,38.30
2022-07-31T12:17:39.209Z,39.70
2022-07-31T12:20:29.827Z,36.57
2022-07-31T12:23:40.800Z,34.43
2022-07-31T12:26:05.002Z,35.90
2022-07-31T12:28:38.729Z,36.93
2022-07-31T12:31:12.659Z,35.87
2022-07-31T12:33:47.289Z,45.60
2022-07-31T12:36:23.360Z,43.07
2022-07-31T12:39:04.103Z,36.63
2022-07-31T12:41:47.184Z,41.17
2022-07-31T12:47:26.355Z,37.33
2022-07-31T12:50:00.338Z,40.60
2022-07-31T12:52:36.987Z,36.27
2022-07-31T12:55:11.570Z,33.03
2022-07-31T12:57:51.188Z,32.03
2022-07-31T13:00:27.614Z,27.67
2022-07-31T13:03:01.911Z,35.13
2022-07-31T13:05:35.394Z,32.03
2022-07-31T13:08:11.905Z,37.73
2022-07-31T13:10:46.057Z,29.67
2022-07-31T13:13:20.922Z,32.50
2022-07-31T13:15:56.795Z,29.93
2022-07-31T13:18:31.595Z,37.50
2022-07-31T13:21:05.567Z,33.67
2022-07-31T13:23:41.460Z,29.87
2022-07-31T13:26:15.353Z,31.47
2022-07-31T13:28:49.535Z,34.37
2022-07-31T13:31:26.318Z,40.37
2022-07-31T13:34:16.193Z,33.73
2022-07-31T13:37:07.109Z,41.90
2022-07-31T13:39:42.856Z,39.53
2022-07-31T13:42:16.348Z,37.70
2022-07-31T13:44:50.623Z,32.57
2022-07-31T13:47:24.744Z,35.93
2022-07-31T13:49:58.347Z,34.17
2022-07-31T13:52:32.473Z,38.30
2022-07-31T13:55:08.447Z,35.37
2022-07-31T13:57:42.961Z,32.33
2022-07-31T14:00:18.346Z,35.97
2022-07-31T14:02:54.543Z,33.03
2022-07-31T14:05:39.931Z,31.50
2022-07-31T14:08:33.515Z,34.70
2022-07-31T14:11:13.806Z,32.03
2022-07-31T14:13:50.496Z,29.33
2022-07-31T14:16:24.966Z,34.70
2022-07-31T14:18:59.460Z,32.17
2022-07-31T14:21:33.317Z,37.30
2022-07-31T14:24:07.695Z,36.10
2022-07-31T14:26:43.473Z,31.33
2022-07-31T14:29:17.672Z,35.93
2022-07-31T14:31:53.122Z,33.17
2022-07-31T14:34:35.273Z,41.83
2022-07-31T14:37:09.844Z,34.53
2022-07-31T14:39:44.247Z,32.77
2022-07-31T14:42:43.253Z,32.50
2022-07-31T14:45:17.835Z,34.03
2022-07-31T14:47:51.904Z,30.47
2022-07-31T14:50:26.314Z,34.90
2022-07-31T14:53:12.584Z,36.40
2022-07-31T14:55:47.235Z,38.17
2022-07-31T14:58:23.149Z,36.67
2022-07-31T15:00:58.871Z,39.13
2022-07-31T15:03:35.012Z,34.40
2022-07-31T15:06:50.834Z,42.40
2022-07-31T15:09:04.845Z,33.97
2022-07-31T15:11:59.155Z,31.60
2022-07-31T15:14:35.481Z,31.03
2022-07-31T15:17:09.446Z,33.50
2022-07-31T15:19:43.300Z,37.40
2022-07-31T15:22:18.930Z,41.20
2022-07-31T15:24:52.996Z,31.00
2022-07-31T15:27:27.350Z,33.87
2022-07-31T15:30:07.719Z,40.00
2022-07-31T15:32:48.013Z,31.47
2022-07-31T15:35:22.693Z,32.47
2022-07-31T15:37:57.082Z,34.93
2022-07-31T15:40:31.054Z,38.03
2022-07-31T15:43:05.452Z,33.70
2022-07-31T15:45:42.451Z,38.73
2022-07-31T15:48:17.833Z,34.37
2022-07-31T15:50:52.751Z,36.03
2022-07-31T15:53:29.947Z,36.70
2022-07-31T15:56:11.505Z,37.83
2022-07-31T15:58:45.139Z,36.37
2022-07-31T16:01:21.606Z,40.13
2022-07-31T16:03:55.657Z,42.00
2022-07-31T16:06:32.063Z,36.53
2022-07-31T16:09:06.525Z,47.27
2022-07-31T16:12:03.613Z,36.27
2022-07-31T16:14:34.144Z,40.50
2022-07-31T16:17:09.647Z,39.20
2022-07-31T16:19:44.302Z,36.93
2022-07-31T16:22:18.432Z,36.83
2022-07-31T16:24:52.118Z,40.53
2022-07-31T16:27:26.623Z,41.33
2022-07-31T16:30:02.274Z,43.50
2022-07-31T16:32:39.490Z,54.77
2022-07-31T16:35:14.790Z,43.00
2022-07-31T16:37:52.403Z,47.00
2022-07-31T16:40:31.677Z,44.73
2022-07-31T16:43:49.403Z,42.40
2022-07-31T16:46:01.710Z,43.73
2022-07-31T16:48:37.330Z,42.57
2022-07-31T16:51:16.205Z,47.53
2022-07-31T16:54:13.050Z,48.93
2022-07-31T16:56:47.578Z,47.07
2022-07-31T16:59:22.127Z,42.27
2022-07-31T17:02:00.624Z,46.53
2022-07-31T17:04:37.424Z,47.47
2022-07-31T17:07:11.752Z,43.23
2022-07-31T17:15:22.443Z,37.33
2022-07-31T17:17:55.944Z,38.43
2022-07-31T17:20:32.087Z,37.50
2022-07-31T17:23:08.719Z,39.87
2022-07-31T17:25:41.836Z,34.83
2022-07-31T17:28:15.659Z,32.70
2022-07-31T17:30:49.375Z,35.93
2022-07-31T17:33:23.323Z,32.83
2022-07-31T17:36:33.335Z,34.63
2022-07-31T17:41:55.122Z,36.40
2022-07-31T17:44:29.073Z,36.40
2022-07-31T17:47:03.561Z,33.77
2022-07-31T17:49:39.699Z,37.57
2022-07-31T17:52:15.090Z,33.03
2022-07-31T17:54:49.468Z,32.50
2022-07-31T17:57:24.487Z,37.07
2022-07-31T18:00:01.416Z,38.47
2022-07-31T18:02:38.046Z,30.00
2022-07-31T18:05:12.607Z,36.43
2022-07-31T18:07:51.675Z,35.60
2022-07-31T18:10:51.811Z,33.13
2022-07-31T18:13:19.541Z,35.27
2022-07-31T18:15:52.981Z,30.10
2022-07-31T18:18:28.237Z,29.47
2022-07-31T18:21:02.967Z,30.13
2022-07-31T18:23:47.294Z,31.40
2022-07-31T18:26:21.381Z,32.43
2022-07-31T18:28:54.896Z,33.40
2022-07-31T18:31:32.188Z,36.20
2022-07-31T18:34:09.766Z,35.27
2022-07-31T18:36:44.173Z,38.13
2022-07-31T18:39:19.848Z,38.73
2022-07-31T18:41:53.557Z,39.83
2022-07-31T18:44:27.548Z,43.53
2022-07-31T18:47:01.356Z,44.43
2022-07-31T18:51:00.502Z,41.17
2022-07-31T18:52:30.567Z,41.93
2022-07-31T18:55:05.900Z,36.93
2022-07-31T18:57:40.257Z,40.97
2022-07-31T19:00:16.470Z,38.30
2022-07-31T19:02:50.784Z,39.90
2022-07-31T19:05:24.586Z,36.70
2022-07-31T19:07:58.975Z,39.57
2022-07-31T19:10:34.432Z,35.93
2022-07-31T19:13:08.354Z,34.77
2022-07-31T19:15:54.343Z,36.93
2022-07-31T19:18:29.129Z,39.07
2022-07-31T19:21:19.048Z,37.47
2022-07-31T19:23:57.200Z,36.80
2022-07-31T19:26:32.801Z,36.60
2022-07-31T19:29:09.735Z,37.00
2022-07-31T19:31:45.296Z,36.37
2022-07-31T19:34:19.967Z,36.53
2022-07-31T19:36:53.820Z,40.67
2022-07-31T19:39:27.372Z,42.50
2022-07-31T19:42:19.970Z,38.67
2022-07-31T19:44:53.378Z,39.10
2022-07-31T19:47:27.232Z,45.07
2022-07-31T19:50:01.129Z,38.97
2022-07-31T19:52:36.901Z,44.80
2022-07-31T19:55:11.886Z,37.40
2022-07-31T19:57:47.401Z,42.03
2022-07-31T20:00:21.153Z,42.87
2022-07-31T20:02:59.422Z,38.10
2022-07-31T20:05:34.274Z,38.57
2022-07-31T20:08:08.054Z,45.03
2022-07-31T20:10:41.877Z,43.50
2022-07-31T20:13:17.435Z,43.93
2022-07-31T20:15:53.139Z,41.00
2022-07-31T20:18:30.127Z,42.23
2022-07-31T20:21:06.180Z,38.07
2022-07-31T20:23:41.278Z,41.00
2022-07-31T20:26:16.911Z,41.40
2022-07-31T20:28:52.005Z,41.83
2022-07-31T20:31:26.232Z,42.23
2022-07-31T20:33:59.693Z,45.00
2022-07-31T20:36:34.384Z,42.20
2022-07-31T20:39:08.405Z,43.33
2022-07-31T20:41:42.491Z,45.23
2022-07-31T20:44:17.897Z,40.90
2022-07-31T20:46:51.335Z,44.30
2022-07-31T20:49:35.325Z,42.03
2022-07-31T20:52:10.060Z,40.23
2022-07-31T20:54:43.780Z,43.57
2022-07-31T20:57:18.968Z,46.40
2022-07-31T20:59:55.128Z,43.50
2022-07-31T21:02:28.508Z,44.23
2022-07-31T21:05:03.886Z,49.30
2022-07-31T21:07:37.927Z,53.27
2022-07-31T21:10:12.913Z,49.00
2022-07-31T21:12:49.969Z,51.00
2022-07-31T21:15:43.128Z,47.00
2022-07-31T21:18:18.472Z,48.57
2022-07-31T21:20:53.779Z,50.53
2022-07-31T21:23:29.271Z,52.40
2022-07-31T21:26:04.037Z,56.40
2022-07-31T21:28:38.426Z,54.60
2022-07-31T21:31:14.959Z,50.27
2022-07-31T21:33:50.124Z,53.43
2022-07-31T21:36:25.447Z,50.43
2022-07-31T21:38:59.389Z,49.83
2022-07-31T21:41:36.802Z,45.93
2022-07-31T21:44:12.217Z,47.83
2022-07-31T21:46:51.968Z,50.70
2022-07-31T21:49:26.995Z,44.93
2022-07-31T21:52:01.446Z,44.37
2022-07-31T21:54:35.142Z,46.87
2022-07-31T21:57:08.926Z,49.73
2022-07-31T21:59:43.304Z,46.57
2022-07-31T22:02:18.871Z,49.00
2022-07-31T22:05:08.287Z,50.47
2022-07-31T22:07:47.523Z,57.63
2022-07-31T22:10:22.802Z,54.27
2022-07-31T22:12:58.988Z,54.47
2022-07-31T22:15:58.540Z,48.10
2022-07-31T22:18:28.778Z,48.90
2022-07-31T22:21:03.235Z,53.73
2022-07-31T22:23:37.016Z,43.63
2022-07-31T22:26:11.389Z,45.60
2022-07-31T22:28:45.589Z,45.83
2022-07-31T22:31:20.022Z,46.23
2022-07-31T22:33:56.069Z,39.83
2022-07-31T22:36:30.916Z,38.83
2022-07-31T22:39:04.791Z,40.53
2022-07-31T22:41:39.222Z,39.57
2022-07-31T22:44:15.368Z,41.43
2022-07-31T22:46:49.863Z,39.57
2022-07-31T22:49:26.556Z,43.33
2022-07-31T22:51:59.872Z,41.07
2022-07-31T22:54:34.694Z,46.88
2022-07-31T22:57:08.884Z,40.40
2022-07-31T22:59:42.837Z,50.33
2022-07-31T23:02:18.342Z,44.78
2022-07-31T23:04:54.671Z,42.88
2022-07-31T23:07:28.573Z,50.55
2022-07-31T23:10:02.384Z,49.13
2022-07-31T23:12:36.845Z,44.53
2022-07-31T23:15:11.542Z,45.95
2022-07-31T23:17:44.910Z,42.83
2022-07-31T23:20:19.686Z,45.50
2022-07-31T23:22:54.121Z,42.65
2022-07-31T23:25:27.431Z,44.30
2022-07-31T23:28:01.880Z,40.83
2022-07-31T23:30:36.699Z,35.67
2022-07-31T23:33:10.238Z,40.53
2022-07-31T23:35:45.857Z,48.38
2022-07-31T23:38:20.298Z,41.58
2022-07-31T23:40:57.324Z,44.40
2022-07-31T23:43:29.420Z,34.20
2022-07-31T23:46:09.417Z,36.00
2022-07-31T23:48:43.290Z,35.63
2022-07-31T23:51:18.119Z,36.47
2022-07-31T23:53:54.302Z,32.65
2022-07-31T23:56:27.577Z,33.63
2022-07-31T23:59:01.546Z,32.80
